Meteo Giornale » Osservazioni meteo Italia » Lecce

ore: 21:55 - Osservazioni Meteo Lecce
Lat. 40° 14' N Lon. 18° 9' E Alt. 48 metri s.l.m.

sereno Europe/Rome

25 °C

Sereno

Temp. 24 Ore

21 °C

34 °C

Nord-Ovest

9.3 Km/h

Dew point 17 °C

Umidità 61 %

Visibilità  10 Km

Il sole sorge alle ore 05:18

Il sole tramonta alle ore 20:22

Data e Ora Cielo e Fenomeni T °C DP °C Um. % Pres. hPa Vis. km Vento km/h
Oggi h: 21:55 sereno Sereno 25 17 61 1012 10 NO 9.3
Oggi h: 20:55 sereno Sereno 28 16 48 1012 10 N 5.5
Oggi h: 19:55 sereno Sereno 30 16 42 1012 10 N 13
Oggi h: 18:55 sereno Sereno 31 15 37 1011 10 N 18.5
Oggi h: 17:55 sereno Sereno 31 14 35 1011 10 N/NO 24
Oggi h: 16:55 sereno Sereno 33 16 36 1011 10 N/NO 20.3
Oggi h: 15:55 poco_nuvoloso Poco Nuvoloso 33 16 36 1011 10 N/NO 22.2
Oggi h: 14:55 poco_nuvoloso Poco Nuvoloso 33 20 46 1011 10 N/NO 22.2
Oggi h: 13:55 nuvoloso Nuvoloso 34 23 52 1012 10 N/NO 22.2
Oggi h: 12:55 nuvoloso Nuvoloso 33 24 59 1012 10 NE 18.5
Oggi h: 11:55 nuvoloso Nuvoloso 32 23 59 1012 10 N/NE 13
Oggi h: 10:55 poco_nuvoloso Poco Nuvoloso 31 22 58 1012 10 N 11.1
Oggi h: 09:55 sereno Sereno 30 22 62 1012 10 NE 9.3
Oggi h: 08:55 sereno Sereno 28 21 65 1012 10 N/NE 9.3
Oggi h: 07:55 sereno Sereno 27 22 74 1012 10 NO 7.4
Oggi h: 06:55 sereno Sereno 24 22 88 1011 10 N 1.8
Oggi h: 05:55 sereno Sereno 21 19 88 1011 10 N 3.7
Oggi h: 03:55 sereno Sereno 21 19 88 1011 10 NO 7.4
Oggi h: 02:55 sereno Sereno 23 21 88 1011 10 E/SE 7.4
Oggi h: 01:55 sereno Sereno 24 22 88 1011 10 SE 9.3
Oggi h: 00:55 sereno Sereno 23 21 88 1012 10 S/SE 11.1
Ieri h: 23:55 sereno Sereno 24 20 78 1012 10 S 7.4
Ieri h: 22:55 sereno Sereno 26 19 65 1011 10 N 5.5